sensor_id;sensor_type;location;lat;lon;timestamp;pressure;altitude;pressure_sealevel;temperature;humidity
50684;BME280;36654;45.042;38.994;2023-02-11T00:00:06;102983.53;;;-4.51;76.42
50684;BME280;36654;45.042;38.994;2023-02-11T00:02:32;102977.44;;;-4.51;76.81
50684;BME280;36654;45.042;38.994;2023-02-11T00:04:58;102989.03;;;-4.48;76.61
50684;BME280;36654;45.042;38.994;2023-02-11T00:07:28;102982.94;;;-4.48;76.66
50684;BME280;36654;45.042;38.994;2023-02-11T00:09:54;102992.41;;;-4.49;76.50
50684;BME280;36654;45.042;38.994;2023-02-11T00:12:20;102982.03;;;-4.49;76.56
50684;BME280;36654;45.042;38.994;2023-02-11T00:14:45;102994.22;;;-4.48;76.49
50684;BME280;36654;45.042;38.994;2023-02-11T00:17:11;102988.13;;;-4.48;76.35
50684;BME280;36654;45.042;38.994;2023-02-11T00:19:36;102977.09;;;-4.55;76.42
50684;BME280;36654;45.042;38.994;2023-02-11T00:22:02;102867.59;;;-5.18;76.33
50684;BME280;36654;45.042;38.994;2023-02-11T00:24:27;102977.78;;;-4.48;76.33
50684;BME280;36654;45.042;38.994;2023-02-11T00:26:54;102980.13;;;-4.59;76.33
50684;BME280;36654;45.042;38.994;2023-02-11T00:29:20;102908.88;;;-4.95;76.26
50684;BME280;36654;45.042;38.994;2023-02-11T00:31:46;102978.38;;;-4.67;76.21
50684;BME280;36654;45.042;38.994;2023-02-11T00:34:12;102987.22;;;-4.65;76.30
50684;BME280;36654;45.042;38.994;2023-02-11T00:36:38;102982.88;;;-4.57;76.34
50684;BME280;36654;45.042;38.994;2023-02-11T00:39:03;102980.78;;;-4.52;76.35
50684;BME280;36654;45.042;38.994;2023-02-11T00:41:29;102973.31;;;-4.49;76.08
50684;BME280;36654;45.042;38.994;2023-02-11T00:43:55;102966.31;;;-4.50;75.67
50684;BME280;36654;45.042;38.994;2023-02-11T00:46:21;102966.50;;;-4.49;75.60
50684;BME280;36654;45.042;38.994;2023-02-11T00:48:46;102971.22;;;-4.45;75.69
50684;BME280;36654;45.042;38.994;2023-02-11T00:51:12;102939.53;;;-4.67;75.39
50684;BME280;36654;45.042;38.994;2023-02-11T00:53:38;102978.75;;;-4.39;75.35
50684;BME280;36654;45.042;38.994;2023-02-11T00:56:04;102951.28;;;-4.46;75.28
50684;BME280;36654;45.042;38.994;2023-02-11T00:58:30;102965.06;;;-4.38;75.14
50684;BME280;36654;45.042;38.994;2023-02-11T01:00:55;102883.06;;;-4.87;74.90
50684;BME280;36654;45.042;38.994;2023-02-11T01:03:21;102958.19;;;-4.38;75.06
50684;BME280;36654;45.042;38.994;2023-02-11T01:05:47;102957.09;;;-4.40;75.03
50684;BME280;36654;45.042;38.994;2023-02-11T01:08:12;102945.84;;;-4.40;75.03
50684;BME280;36654;45.042;38.994;2023-02-11T01:10:38;102948.59;;;-4.39;75.16
50684;BME280;36654;45.042;38.994;2023-02-11T01:13:04;102959.28;;;-4.36;74.87
50684;BME280;36654;45.042;38.994;2023-02-11T01:15:31;102974.41;;;-4.31;75.05
50684;BME280;36654;45.042;38.994;2023-02-11T01:17:57;102964.63;;;-4.34;74.90
50684;BME280;36654;45.042;38.994;2023-02-11T01:20:24;102966.63;;;-4.31;74.83
50684;BME280;36654;45.042;38.994;2023-02-11T01:22:50;102961.69;;;-4.37;75.07
50684;BME280;36654;45.042;38.994;2023-02-11T01:25:16;102971.63;;;-4.33;74.92
50684;BME280;36654;45.042;38.994;2023-02-11T01:27:42;102954.69;;;-4.38;75.02
50684;BME280;36654;45.042;38.994;2023-02-11T01:30:09;102969.03;;;-4.33;75.17
50684;BME280;36654;45.042;38.994;2023-02-11T01:32:36;102964.94;;;-4.31;75.11
50684;BME280;36654;45.042;38.994;2023-02-11T01:35:02;102971.22;;;-4.29;75.21
50684;BME280;36654;45.042;38.994;2023-02-11T01:37:28;102969.69;;;-4.27;75.11
50684;BME280;36654;45.042;38.994;2023-02-11T01:39:53;102981.13;;;-4.25;74.99
50684;BME280;36654;45.042;38.994;2023-02-11T01:42:21;102986.31;;;-4.25;75.18
50684;BME280;36654;45.042;38.994;2023-02-11T01:44:52;102960.19;;;-4.35;75.03
50684;BME280;36654;45.042;38.994;2023-02-11T01:47:19;102974.22;;;-4.33;75.03
50684;BME280;36654;45.042;38.994;2023-02-11T01:49:52;102972.13;;;-4.28;75.17
50684;BME280;36654;45.042;38.994;2023-02-11T01:52:27;102961.28;;;-4.33;75.42
50684;BME280;36654;45.042;38.994;2023-02-11T01:55:02;102950.69;;;-4.43;75.39
50684;BME280;36654;45.042;38.994;2023-02-11T01:57:56;102972.72;;;-4.31;75.25
50684;BME280;36654;45.042;38.994;2023-02-11T02:00:26;102985.22;;;-4.27;75.36
50684;BME280;36654;45.042;38.994;2023-02-11T02:03:15;102984.31;;;-4.27;75.41
50684;BME280;36654;45.042;38.994;2023-02-11T02:10:54;102967.53;;;-4.31;75.03
50684;BME280;36654;45.042;38.994;2023-02-11T02:13:24;102972.44;;;-4.25;74.97
50684;BME280;36654;45.042;38.994;2023-02-11T02:15:53;102965.59;;;-4.25;75.04
50684;BME280;36654;45.042;38.994;2023-02-11T02:24:26;102983.56;;;-4.26;74.75
50684;BME280;36654;45.042;38.994;2023-02-11T02:35:28;102978.50;;;-4.34;74.95
50684;BME280;36654;45.042;38.994;2023-02-11T02:43:17;102975.50;;;-4.45;74.82
50684;BME280;36654;45.042;38.994;2023-02-11T02:45:44;102969.22;;;-4.47;74.96
50684;BME280;36654;45.042;38.994;2023-02-11T02:57:00;102963.47;;;-4.45;74.96
50684;BME280;36654;45.042;38.994;2023-02-11T02:59:37;102974.72;;;-4.44;74.96
50684;BME280;36654;45.042;38.994;2023-02-11T03:02:17;102977.19;;;-4.46;74.81
50684;BME280;36654;45.042;38.994;2023-02-11T03:04:51;102969.09;;;-4.49;74.87
50684;BME280;36654;45.042;38.994;2023-02-11T03:07:29;102970.09;;;-4.56;74.70
50684;BME280;36654;45.042;38.994;2023-02-11T03:10:02;102969.50;;;-4.53;74.58
50684;BME280;36654;45.042;38.994;2023-02-11T03:12:32;102977.44;;;-4.51;74.66
50684;BME280;36654;45.042;38.994;2023-02-11T03:15:01;102977.44;;;-4.51;74.66
50684;BME280;36654;45.042;38.994;2023-02-11T03:17:30;102996.63;;;-4.49;74.71
50684;BME280;36654;45.042;38.994;2023-02-11T03:19:58;102977.31;;;-4.44;74.92
50684;BME280;36654;45.042;38.994;2023-02-11T03:22:29;102952.47;;;-4.51;74.72
50684;BME280;36654;45.042;38.994;2023-02-11T03:24:56;102962.88;;;-4.42;74.68
50684;BME280;36654;45.042;38.994;2023-02-11T03:27:32;102968.41;;;-4.39;74.47
50684;BME280;36654;45.042;38.994;2023-02-11T03:30:24;102949.78;;;-4.44;74.74
50684;BME280;36654;45.042;38.994;2023-02-11T03:32:57;102945.84;;;-4.40;74.28
50684;BME280;36654;45.042;38.994;2023-02-11T03:35:44;102952.75;;;-4.32;74.30
50684;BME280;36654;45.042;38.994;2023-02-11T03:38:24;102960.38;;;-4.34;74.16
50684;BME280;36654;45.042;38.994;2023-02-11T03:40:53;102951.81;;;-4.32;73.87
50684;BME280;36654;45.042;38.994;2023-02-11T03:43:38;102913.91;;;-4.57;73.68
50684;BME280;36654;45.042;38.994;2023-02-11T03:46:06;102954.72;;;-4.29;73.48
50684;BME280;36654;45.042;38.994;2023-02-11T03:48:43;102945.31;;;-4.29;73.37
50684;BME280;36654;45.042;38.994;2023-02-11T03:51:11;102944.81;;;-4.34;72.95
50684;BME280;36654;45.042;38.994;2023-02-11T03:53:40;102953.81;;;-4.30;73.09
50684;BME280;36654;45.042;38.994;2023-02-11T03:56:10;102951.69;;;-4.34;72.99
50684;BME280;36654;45.042;38.994;2023-02-11T03:58:37;102930.63;;;-4.37;72.97
50684;BME280;36654;45.042;38.994;2023-02-11T04:01:03;102943.56;;;-4.37;72.84
50684;BME280;36654;45.042;38.994;2023-02-11T04:03:29;102826.94;;;-5.04;72.65
50684;BME280;36654;45.042;38.994;2023-02-11T04:05:57;102945.84;;;-4.40;72.62
50684;BME280;36654;45.042;38.994;2023-02-11T04:08:22;102956.19;;;-4.40;72.66
50684;BME280;36654;45.042;38.994;2023-02-11T04:10:48;102923.19;;;-4.59;72.58
50684;BME280;36654;45.042;38.994;2023-02-11T04:13:14;102951.78;;;-4.41;72.80
50684;BME280;36654;45.042;38.994;2023-02-11T04:15:39;102967.53;;;-4.31;72.67
50684;BME280;36654;45.042;38.994;2023-02-11T04:18:05;102958.28;;;-4.29;72.91
50684;BME280;36654;45.042;38.994;2023-02-11T04:20:30;102973.03;;;-4.28;72.85
50684;BME280;36654;45.042;38.994;2023-02-11T04:22:56;102926.25;;;-4.54;72.62
50684;BME280;36654;45.042;38.994;2023-02-11T04:25:22;102963.88;;;-4.33;72.79
50684;BME280;36654;45.042;38.994;2023-02-11T04:27:47;102954.41;;;-4.32;73.04
50684;BME280;36654;45.042;38.994;2023-02-11T04:30:13;102943.41;;;-4.39;72.65
50684;BME280;36654;45.042;38.994;2023-02-11T04:32:39;102964.19;;;-4.30;72.97
50684;BME280;36654;45.042;38.994;2023-02-11T04:35:05;102961.19;;;-4.26;73.18
50684;BME280;36654;45.042;38.994;2023-02-11T04:37:31;102972.16;;;-4.20;73.15
50684;BME280;36654;45.042;38.994;2023-02-11T04:39:56;102951.13;;;-4.23;73.08
50684;BME280;36654;45.042;38.994;2023-02-11T04:42:22;102965.75;;;-4.23;72.81
50684;BME280;36654;45.042;38.994;2023-02-11T04:44:48;102961.91;;;-4.27;72.71
50684;BME280;36654;45.042;38.994;2023-02-11T04:47:13;102961.91;;;-4.27;72.92
50684;BME280;36654;45.042;38.994;2023-02-11T04:49:40;102970.94;;;-4.23;72.73
50684;BME280;36654;45.042;38.994;2023-02-11T04:52:06;102946.06;;;-4.30;72.76
50684;BME280;36654;45.042;38.994;2023-02-11T04:54:32;102955.69;;;-4.29;72.59
50684;BME280;36654;45.042;38.994;2023-02-11T04:56:58;102981.03;;;-4.18;72.80
50684;BME280;36654;45.042;38.994;2023-02-11T04:59:23;102967.47;;;-4.15;72.79
50684;BME280;36654;45.042;38.994;2023-02-11T05:01:49;102972.06;;;-4.13;72.70
50684;BME280;36654;45.042;38.994;2023-02-11T05:04:15;102955.31;;;-4.16;72.65
50684;BME280;36654;45.042;38.994;2023-02-11T05:06:41;102956.97;;;-4.17;72.47
50684;BME280;36654;45.042;38.994;2023-02-11T05:09:07;102978.84;;;-4.06;72.41
50684;BME280;36654;45.042;38.994;2023-02-11T05:11:33;102973.78;;;-4.04;72.27
50684;BME280;36654;45.042;38.994;2023-02-11T05:14:00;102959.81;;;-3.98;72.24
50684;BME280;36654;45.042;38.994;2023-02-11T05:16:26;102963.31;;;-3.97;71.95
50684;BME280;36654;45.042;38.994;2023-02-11T05:18:52;102950.34;;;-3.97;71.76
50684;BME280;36654;45.042;38.994;2023-02-11T05:21:20;102956.19;;;-3.91;71.69
50684;BME280;36654;45.042;38.994;2023-02-11T05:23:46;102951.94;;;-3.91;71.51
50684;BME280;36654;45.042;38.994;2023-02-11T05:26:12;102955.59;;;-3.88;71.25
50684;BME280;36654;45.042;38.994;2023-02-11T05:28:38;102955.63;;;-3.80;71.26
50684;BME280;36654;45.042;38.994;2023-02-11T05:31:04;102954.44;;;-3.75;70.74
50684;BME280;36654;45.042;38.994;2023-02-11T05:33:29;102945.91;;;-3.74;70.30
50684;BME280;36654;45.042;38.994;2023-02-11T05:35:59;102939.22;;;-3.72;70.05
50684;BME280;36654;45.042;38.994;2023-02-11T05:38:26;102928.09;;;-3.71;69.60
50684;BME280;36654;45.042;38.994;2023-02-11T05:40:51;102938.94;;;-3.57;69.68
50684;BME280;36654;45.042;38.994;2023-02-11T05:43:17;102948.72;;;-3.55;69.23
50684;BME280;36654;45.042;38.994;2023-02-11T05:45:42;102916.31;;;-3.76;69.16
50684;BME280;36654;45.042;38.994;2023-02-11T05:48:08;102936.22;;;-3.59;69.08
50684;BME280;36654;45.042;38.994;2023-02-11T05:50:34;102931.94;;;-3.50;68.78
50684;BME280;36654;45.042;38.994;2023-02-11T05:52:59;102910.28;;;-3.50;68.54
50684;BME280;36654;45.042;38.994;2023-02-11T05:55:25;102934.16;;;-3.37;68.36
50684;BME280;36654;45.042;38.994;2023-02-11T05:57:50;102919.81;;;-3.33;68.25
50684;BME280;36654;45.042;38.994;2023-02-11T06:00:16;102924.38;;;-3.31;67.93
50684;BME280;36654;45.042;38.994;2023-02-11T06:02:42;102879.19;;;-3.50;67.95
50684;BME280;36654;45.042;38.994;2023-02-11T06:05:08;102913.75;;;-3.16;67.69
50684;BME280;36654;45.042;38.994;2023-02-11T06:07:34;102892.97;;;-3.16;67.59
50684;BME280;36654;45.042;38.994;2023-02-11T06:09:59;102911.59;;;-3.03;67.65
50684;BME280;36654;45.042;38.994;2023-02-11T06:12:27;102888.09;;;-3.13;67.60
50684;BME280;36654;45.042;38.994;2023-02-11T06:14:53;102878.50;;;-3.14;67.69
50684;BME280;36654;45.042;38.994;2023-02-11T06:17:18;102901.22;;;-3.03;67.38
50684;BME280;36654;45.042;38.994;2023-02-11T06:19:44;102857.72;;;-3.14;67.69
50684;BME280;36654;45.042;38.994;2023-02-11T06:22:10;102904.44;;;-2.88;67.75
50684;BME280;36654;45.042;38.994;2023-02-11T06:24:36;102919.84;;;-2.72;67.75
50684;BME280;36654;45.042;38.994;2023-02-11T06:27:04;102922.28;;;-2.65;67.78
50684;BME280;36654;45.042;38.994;2023-02-11T06:29:30;102915.56;;;-2.63;67.48
50684;BME280;36654;45.042;38.994;2023-02-11T06:31:55;102914.34;;;-2.58;67.29
50684;BME280;36654;45.042;38.994;2023-02-11T06:34:21;102917.44;;;-2.62;67.72
50684;BME280;36654;45.042;38.994;2023-02-11T06:36:47;102921.41;;;-2.57;67.97
50684;BME280;36654;45.042;38.994;2023-02-11T06:39:13;102895.56;;;-2.73;68.00
50684;BME280;36654;45.042;38.994;2023-02-11T06:41:39;102939.38;;;-2.50;68.11
50684;BME280;36654;45.042;38.994;2023-02-11T06:44:05;102935.44;;;-2.46;68.28
50684;BME280;36654;45.042;38.994;2023-02-11T06:46:31;102872.38;;;-2.71;68.01
50684;BME280;36654;45.042;38.994;2023-02-11T06:48:56;102918.28;;;-2.35;68.18
50684;BME280;36654;45.042;38.994;2023-02-11T06:51:22;102911.56;;;-2.33;68.21
50684;BME280;36654;45.042;38.994;2023-02-11T06:53:48;102915.53;;;-2.20;67.99
50684;BME280;36654;45.042;38.994;2023-02-11T06:56:17;102917.19;;;-2.20;67.80
50684;BME280;36654;45.042;38.994;2023-02-11T06:58:45;102907.84;;;-2.18;67.68
50684;BME280;36654;45.042;38.994;2023-02-11T07:01:14;102915.47;;;-2.11;67.78
50684;BME280;36654;45.042;38.994;2023-02-11T07:03:42;102868.19;;;-2.34;67.79
50684;BME280;36654;45.042;38.994;2023-02-11T07:06:12;102911.66;;;-2.06;67.52
50684;BME280;36654;45.042;38.994;2023-02-11T07:08:39;102893.91;;;-2.10;67.52
50684;BME280;36654;45.042;38.994;2023-02-11T07:13:36;102912.72;;;-2.04;67.41
50684;BME280;36654;45.042;38.994;2023-02-11T07:16:07;102893.44;;;-2.06;67.40
50684;BME280;36654;45.042;38.994;2023-02-11T07:18:33;102897.13;;;-2.04;67.43
50684;BME280;36654;45.042;38.994;2023-02-11T07:21:03;102894.34;;;-1.97;67.21
50684;BME280;36654;45.042;38.994;2023-02-11T07:23:30;102902.59;;;-1.92;67.07
50684;BME280;36654;45.042;38.994;2023-02-11T07:25:55;102917.56;;;-1.89;67.08
50684;BME280;36654;45.042;38.994;2023-02-11T07:28:21;102894.91;;;-1.90;67.33
50684;BME280;36654;45.042;38.994;2023-02-11T07:30:46;102907.28;;;-1.88;67.24
50684;BME280;36654;45.042;38.994;2023-02-11T07:33:12;102898.88;;;-1.85;67.31
50684;BME280;36654;45.042;38.994;2023-02-11T07:35:37;102895.81;;;-1.81;67.17
50684;BME280;36654;45.042;38.994;2023-02-11T07:38:03;102893.03;;;-1.74;67.15
50684;BME280;36654;45.042;38.994;2023-02-11T07:40:28;102877.59;;;-1.81;66.72
50684;BME280;36654;45.042;38.994;2023-02-11T07:42:56;102908.44;;;-1.67;66.79
50684;BME280;36654;45.042;38.994;2023-02-11T07:45:21;102905.22;;;-1.64;66.64
50684;BME280;36654;45.042;38.994;2023-02-11T07:47:49;102897.53;;;-1.63;66.79
50684;BME280;36654;45.042;38.994;2023-02-11T07:50:16;102897.53;;;-1.63;66.77
50684;BME280;36654;45.042;38.994;2023-02-11T07:52:41;102900.94;;;-1.64;66.79
50684;BME280;36654;45.042;38.994;2023-02-11T07:55:07;102890.66;;;-1.62;66.68
50684;BME280;36654;45.042;38.994;2023-02-11T07:57:34;102898.41;;;-1.54;66.72
50684;BME280;36654;45.042;38.994;2023-02-11T08:00:00;102900.13;;;-1.54;66.79
50684;BME280;36654;45.042;38.994;2023-02-11T08:02:25;102895.34;;;-1.49;66.66
50684;BME280;36654;45.042;38.994;2023-02-11T08:04:51;102886.59;;;-1.50;66.69
50684;BME280;36654;45.042;38.994;2023-02-11T08:07:17;102839.31;;;-1.74;66.35
50684;BME280;36654;45.042;38.994;2023-02-11T08:09:43;102882.13;;;-1.42;66.60
50684;BME280;36654;45.042;38.994;2023-02-11T08:12:09;102875.38;;;-1.40;66.41
50684;BME280;36654;45.042;38.994;2023-02-11T08:14:35;102862.69;;;-1.37;66.19
50684;BME280;36654;45.042;38.994;2023-02-11T08:17:01;102837.13;;;-1.41;66.00
50684;BME280;36654;45.042;38.994;2023-02-11T08:19:26;102874.34;;;-1.23;65.91
50684;BME280;36654;45.042;38.994;2023-02-11T08:21:55;102875.56;;;-1.20;65.71
50684;BME280;36654;45.042;38.994;2023-02-11T08:24:22;102809.69;;;-1.57;65.35
50684;BME280;36654;45.042;38.994;2023-02-11T08:26:47;102857.41;;;-1.28;65.46
50684;BME280;36654;45.042;38.994;2023-02-11T08:29:15;102873.44;;;-1.24;65.68
50684;BME280;36654;45.042;38.994;2023-02-11T08:31:44;102872.53;;;-1.24;65.63
50684;BME280;36654;45.042;38.994;2023-02-11T08:34:11;102862.13;;;-1.24;65.57
50684;BME280;36654;45.042;38.994;2023-02-11T08:36:39;102870.63;;;-1.17;65.66
50684;BME280;36654;45.042;38.994;2023-02-11T08:39:16;102860.22;;;-1.17;65.63
50684;BME280;36654;45.042;38.994;2023-02-11T08:41:42;102852.13;;;-1.20;65.71
50684;BME280;36654;45.042;38.994;2023-02-11T08:44:08;102855.03;;;-1.17;65.89
50684;BME280;36654;45.042;38.994;2023-02-11T08:46:34;102858.69;;;-1.15;65.84
50684;BME280;36654;45.042;38.994;2023-02-11T08:49:00;102851.63;;;-1.16;65.37
50684;BME280;36654;45.042;38.994;2023-02-11T08:51:27;102849.81;;;-1.17;65.33
50684;BME280;36654;45.042;38.994;2023-02-11T08:53:55;102844.59;;;-1.17;65.03
50684;BME280;36654;45.042;38.994;2023-02-11T08:56:21;102841.50;;;-1.13;65.37
50684;BME280;36654;45.042;38.994;2023-02-11T08:58:50;102835.53;;;-1.12;65.20
50684;BME280;36654;45.042;38.994;2023-02-11T09:01:21;102785.63;;;-1.35;65.24
50684;BME280;36654;45.042;38.994;2023-02-11T09:03:48;102826.81;;;-1.12;65.23
50684;BME280;36654;45.042;38.994;2023-02-11T09:06:14;102832.66;;;-1.15;65.47
50684;BME280;36654;45.042;38.994;2023-02-11T09:08:44;102810.78;;;-1.17;65.66
50684;BME280;36654;45.042;38.994;2023-02-11T09:11:10;102789.25;;;-1.24;65.37
50684;BME280;36654;45.042;38.994;2023-02-11T09:13:36;102819.91;;;-1.12;65.63
50684;BME280;36654;45.042;38.994;2023-02-11T09:16:04;102807.59;;;-1.23;65.74
50684;BME280;36654;45.042;38.994;2023-02-11T09:18:30;102825.59;;;-1.16;65.73
50684;BME280;36654;45.042;38.994;2023-02-11T09:21:07;102813.09;;;-1.20;65.82
50684;BME280;36654;45.042;38.994;2023-02-11T09:23:34;102804.78;;;-1.16;66.02
50684;BME280;36654;45.042;38.994;2023-02-11T09:26:08;102800.78;;;-1.12;65.81
50684;BME280;36654;45.042;38.994;2023-02-11T09:28:34;102795.06;;;-1.08;65.76
50684;BME280;36654;45.042;38.994;2023-02-11T09:31:10;102737.00;;;-1.36;65.41
50684;BME280;36654;45.042;38.994;2023-02-11T09:33:37;102772.25;;;-1.11;65.34
50684;BME280;36654;45.042;38.994;2023-02-11T09:36:04;102778.03;;;-1.04;65.50
50684;BME280;36654;45.042;38.994;2023-02-11T09:38:30;102766.06;;;-1.02;65.26
50684;BME280;36654;45.042;38.994;2023-02-11T09:40:56;102767.63;;;-1.04;65.02
50684;BME280;36654;45.042;38.994;2023-02-11T09:43:32;102764.25;;;-1.03;65.31
50684;BME280;36654;45.042;38.994;2023-02-11T09:46:00;102760.84;;;-1.02;65.22
50684;BME280;36654;45.042;38.994;2023-02-11T09:48:30;102747.44;;;-1.07;65.63
50684;BME280;36654;45.042;38.994;2023-02-11T09:51:02;102707.94;;;-1.22;65.55
50684;BME280;36654;45.042;38.994;2023-02-11T09:53:34;102746.31;;;-0.90;65.58
50684;BME280;36654;45.042;38.994;2023-02-11T09:56:08;102728.34;;;-0.97;65.61
50684;BME280;36654;45.042;38.994;2023-02-11T09:58:37;102735.19;;;-0.79;65.34
50684;BME280;36654;45.042;38.994;2023-02-11T10:01:07;102733.91;;;-0.74;65.42
50684;BME280;36654;45.042;38.994;2023-02-11T10:04:00;102736.28;;;-0.67;65.26
50684;BME280;36654;45.042;38.994;2023-02-11T10:06:45;102742.31;;;-0.57;64.92
50684;BME280;36654;45.042;38.994;2023-02-11T10:12:35;102733.44;;;-0.59;65.00
50684;BME280;36654;45.042;38.994;2023-02-11T10:15:17;102729.00;;;-0.50;64.99
50684;BME280;36654;45.042;38.994;2023-02-11T10:23:00;102717.03;;;-0.48;65.34
50684;BME280;36654;45.042;38.994;2023-02-11T10:25:37;102722.50;;;-0.45;65.47
50684;BME280;36654;45.042;38.994;2023-02-11T10:28:30;102720.69;;;-0.46;65.13
50684;BME280;36654;45.042;38.994;2023-02-11T10:33:33;102712.47;;;-0.51;65.04
50684;BME280;36654;45.042;38.994;2023-02-11T10:36:02;102708.97;;;-0.51;64.99
50684;BME280;36654;45.042;38.994;2023-02-11T10:38:28;102713.38;;;-0.50;64.99
50684;BME280;36654;45.042;38.994;2023-02-11T10:40:53;102695.28;;;-0.49;65.30
50684;BME280;36654;45.042;38.994;2023-02-11T10:43:23;102646.91;;;-0.76;65.13
50684;BME280;36654;45.042;38.994;2023-02-11T10:45:52;102694.13;;;-0.52;65.20
50684;BME280;36654;45.042;38.994;2023-02-11T10:48:43;102687.84;;;-0.64;65.11
50684;BME280;36654;45.042;38.994;2023-02-11T10:51:14;102698.13;;;-0.56;65.41
50684;BME280;36654;45.042;38.994;2023-02-11T10:53:39;102697.22;;;-0.56;65.07
50684;BME280;36654;45.042;38.994;2023-02-11T10:56:06;102699.97;;;-0.55;64.97
50684;BME280;36654;45.042;38.994;2023-02-11T10:58:36;102696.44;;;-0.55;65.34
50684;BME280;36654;45.042;38.994;2023-02-11T11:01:04;102704.91;;;-0.58;65.12
50684;BME280;36654;45.042;38.994;2023-02-11T11:03:36;102676.88;;;-0.71;65.17
50684;BME280;36654;45.042;38.994;2023-02-11T11:06:06;102698.25;;;-0.64;65.15
50684;BME280;36654;45.042;38.994;2023-02-11T11:08:43;102686.91;;;-0.65;65.46
50684;BME280;36654;45.042;38.994;2023-02-11T11:11:14;102698.25;;;-0.64;65.24
50684;BME280;36654;45.042;38.994;2023-02-11T11:18:50;102683.97;;;-0.49;64.95
50684;BME280;36654;45.042;38.994;2023-02-11T11:21:35;102690.72;;;-0.51;64.67
50684;BME280;36654;45.042;38.994;2023-02-11T11:24:25;102683.97;;;-0.49;64.88
50684;BME280;36654;45.042;38.994;2023-02-11T11:26:56;102670.38;;;-0.45;64.85
50684;BME280;36654;45.042;38.994;2023-02-11T11:29:25;102661.41;;;-0.38;64.93
50684;BME280;36654;45.042;38.994;2023-02-11T11:31:57;102658.56;;;-0.31;64.75
50684;BME280;36654;45.042;38.994;2023-02-11T11:34:36;102656.59;;;-0.24;64.66
50684;BME280;36654;45.042;38.994;2023-02-11T11:37:22;102656.50;;;-0.15;64.58
50684;BME280;36654;45.042;38.994;2023-02-11T11:40:21;102658.31;;;-0.14;64.54
50684;BME280;36654;45.042;38.994;2023-02-11T11:43:05;102667.19;;;-0.12;64.56
50684;BME280;36654;45.042;38.994;2023-02-11T11:45:52;102661.06;;;-0.12;64.40
50684;BME280;36654;45.042;38.994;2023-02-11T11:48:23;102681.63;;;-0.15;64.41
50684;BME280;36654;45.042;38.994;2023-02-11T11:51:00;102667.69;;;-0.16;64.52
50684;BME280;36654;45.042;38.994;2023-02-11T11:53:40;102670.44;;;-0.14;64.29
50684;BME280;36654;45.042;38.994;2023-02-11T11:56:19;102667.19;;;-0.12;64.56
50684;BME280;36654;45.042;38.994;2023-02-11T11:58:46;102653.88;;;-0.15;64.23
50684;BME280;36654;45.042;38.994;2023-02-11T12:04:09;102654.53;;;-0.07;64.13
50684;BME280;36654;45.042;38.994;2023-02-11T12:11:52;102648.00;;;-0.02;64.45
50684;BME280;36654;45.042;38.994;2023-02-11T12:14:33;102648.75;;;0.07;64.11
50684;BME280;36654;45.042;38.994;2023-02-11T12:25:25;102645.84;;;0.35;63.72
50684;BME280;36654;45.042;38.994;2023-02-11T12:31:31;102653.78;;;0.47;63.09
50684;BME280;36654;45.042;38.994;2023-02-11T12:45:58;102644.06;;;0.13;60.42
50684;BME280;36654;45.042;38.994;2023-02-11T12:48:35;102646.44;;;0.10;60.92
50684;BME280;36654;45.042;38.994;2023-02-11T12:51:27;102642.50;;;0.15;61.13
50684;BME280;36654;45.042;38.994;2023-02-11T12:56:54;102640.41;;;0.11;60.88
50684;BME280;36654;45.042;38.994;2023-02-11T13:01:59;102625.84;;;0.03;61.16
50684;BME280;36654;45.042;38.994;2023-02-11T13:04:37;102622.84;;;-0.02;60.96
50684;BME280;36654;45.042;38.994;2023-02-11T13:07:18;102634.16;;;0.09;60.95
50684;BME280;36654;45.042;38.994;2023-02-11T13:10:32;102643.28;;;0.04;61.03
50684;BME280;36654;45.042;38.994;2023-02-11T13:12:56;102630.13;;;-0.08;61.22
50684;BME280;36654;45.042;38.994;2023-02-11T13:15:45;102629.78;;;-0.12;61.41
50684;BME280;36654;45.042;38.994;2023-02-11T13:18:18;102630.69;;;-0.12;61.60
50684;BME280;36654;45.042;38.994;2023-02-11T13:21:07;102617.25;;;-0.16;61.66
50684;BME280;36654;45.042;38.994;2023-02-11T13:30:12;102618.69;;;-0.10;61.37
50684;BME280;36654;45.042;38.994;2023-02-11T13:35:35;102622.59;;;-0.15;61.66
50684;BME280;36654;45.042;38.994;2023-02-11T13:38:04;102620.63;;;-0.38;61.29
50684;BME280;36654;45.042;38.994;2023-02-11T13:40:34;102578.13;;;-0.68;61.64
50684;BME280;36654;45.042;38.994;2023-02-11T13:43:00;102628.19;;;-0.51;62.00
50684;BME280;36654;45.042;38.994;2023-02-11T13:45:50;102612.81;;;-0.58;62.19
50684;BME280;36654;45.042;38.994;2023-02-11T13:48:21;102612.94;;;-0.57;62.49
50684;BME280;36654;45.042;38.994;2023-02-11T13:50:49;102619.31;;;-0.63;62.79
50684;BME280;36654;45.042;38.994;2023-02-11T13:53:16;102614.91;;;-0.64;62.99
50684;BME280;36654;45.042;38.994;2023-02-11T13:55:48;102622.81;;;-0.63;63.19
50684;BME280;36654;45.042;38.994;2023-02-11T14:00:45;102621.41;;;-0.59;63.40
50684;BME280;36654;45.042;38.994;2023-02-11T14:14:22;102622.81;;;-0.63;63.96
50684;BME280;36654;45.042;38.994;2023-02-11T14:19:32;102628.69;;;-0.66;63.97
50684;BME280;36654;45.042;38.994;2023-02-11T14:22:28;102621.66;;;-0.67;64.18
50684;BME280;36654;45.042;38.994;2023-02-11T14:24:58;102639.09;;;-0.66;64.20
50684;BME280;36654;45.042;38.994;2023-02-11T14:27:43;102625.16;;;-0.66;64.32
50684;BME280;36654;45.042;38.994;2023-02-11T14:43:30;102635.56;;;-0.76;64.33
50684;BME280;36654;45.042;38.994;2023-02-11T14:46:00;102627.09;;;-0.84;64.32
50684;BME280;36654;45.042;38.994;2023-02-11T14:48:30;102637.91;;;-0.79;64.44
50684;BME280;36654;45.042;38.994;2023-02-11T14:53:50;102602.59;;;-0.86;64.38
50684;BME280;36654;45.042;38.994;2023-02-11T14:56:25;102621.25;;;-0.81;64.61
50684;BME280;36654;45.042;38.994;2023-02-11T14:58:52;102625.53;;;-0.82;64.53
50684;BME280;36654;45.042;38.994;2023-02-11T15:01:41;102623.59;;;-0.74;64.57
50684;BME280;36654;45.042;38.994;2023-02-11T15:04:22;102621.09;;;-0.73;64.42